Cabanillas del Campo, Spain
Current Conditions -  °F | °C
As of 10:00 AM on Friday 28 Nov 2014 (Local Time) from LETO Reporting Station
Light Rain Light Rain  
Wind Chill: 50°   Ceiling: 5000
Heat Index: 50°   Visibility: 6mi
Dew Point: 45°   Wind: 12mph
Humidity: 82%   Direction: 140°SE
Pressure: 29.09"   Gusts: NA
Location:  40.63°N, 3.23°W
Report Text: LETO 280900Z 14010KT 110V180 9999 -RA FEW037 OVC050 10/07 Q0985 NOSIG
Loading
Personal Weather Stations






























Interactive Weather Map New forecast layout! Learn more

10-Day Weather Forecast

Advertisements
Track Severe Weather on mobile